sensor_id;sensor_type;location;lat;lon;timestamp;P1;durP1;ratioP1;P2;durP2;ratioP2
71104;SDS011;58760;48.716;8.962;2023-03-05T00:00:51;31.08;;;15.13;;
71104;SDS011;58760;48.716;8.962;2023-03-05T00:03:16;31.15;;;14.27;;
71104;SDS011;58760;48.716;8.962;2023-03-05T00:05:41;39.40;;;15.35;;
71104;SDS011;58760;48.716;8.962;2023-03-05T00:08:07;32.78;;;14.40;;
71104;SDS011;58760;48.716;8.962;2023-03-05T00:10:32;34.60;;;14.68;;
71104;SDS011;58760;48.716;8.962;2023-03-05T00:12:57;33.33;;;15.15;;
71104;SDS011;58760;48.716;8.962;2023-03-05T00:15:23;30.40;;;14.43;;
71104;SDS011;58760;48.716;8.962;2023-03-05T00:17:48;31.60;;;15.63;;
71104;SDS011;58760;48.716;8.962;2023-03-05T00:20:14;36.83;;;15.85;;
71104;SDS011;58760;48.716;8.962;2023-03-05T00:22:39;31.77;;;16.10;;
71104;SDS011;58760;48.716;8.962;2023-03-05T00:25:05;35.65;;;15.82;;
71104;SDS011;58760;48.716;8.962;2023-03-05T00:27:31;42.05;;;17.08;;
71104;SDS011;58760;48.716;8.962;2023-03-05T00:29:56;37.97;;;16.27;;
71104;SDS011;58760;48.716;8.962;2023-03-05T00:32:21;32.00;;;15.52;;
71104;SDS011;58760;48.716;8.962;2023-03-05T00:34:47;33.72;;;16.35;;
71104;SDS011;58760;48.716;8.962;2023-03-05T00:37:14;38.25;;;16.20;;
71104;SDS011;58760;48.716;8.962;2023-03-05T00:39:39;37.15;;;16.85;;
71104;SDS011;58760;48.716;8.962;2023-03-05T00:42:05;34.30;;;16.35;;
71104;SDS011;58760;48.716;8.962;2023-03-05T00:44:30;35.20;;;16.67;;
71104;SDS011;58760;48.716;8.962;2023-03-05T00:46:56;36.80;;;16.50;;
71104;SDS011;58760;48.716;8.962;2023-03-05T00:49:21;36.13;;;16.98;;
71104;SDS011;58760;48.716;8.962;2023-03-05T00:51:47;32.38;;;16.23;;
71104;SDS011;58760;48.716;8.962;2023-03-05T00:54:12;37.45;;;16.55;;
71104;SDS011;58760;48.716;8.962;2023-03-05T00:56:37;38.92;;;16.65;;
71104;SDS011;58760;48.716;8.962;2023-03-05T00:59:03;35.13;;;16.15;;
71104;SDS011;58760;48.716;8.962;2023-03-05T01:01:28;37.92;;;17.08;;
71104;SDS011;58760;48.716;8.962;2023-03-05T01:03:53;38.40;;;17.42;;
71104;SDS011;58760;48.716;8.962;2023-03-05T01:06:21;36.63;;;16.80;;
71104;SDS011;58760;48.716;8.962;2023-03-05T01:08:47;39.50;;;16.88;;
71104;SDS011;58760;48.716;8.962;2023-03-05T01:11:12;40.80;;;18.23;;
71104;SDS011;58760;48.716;8.962;2023-03-05T01:13:38;40.20;;;18.17;;
71104;SDS011;58760;48.716;8.962;2023-03-05T01:16:04;39.20;;;17.90;;
71104;SDS011;58760;48.716;8.962;2023-03-05T01:18:30;40.28;;;18.52;;
71104;SDS011;58760;48.716;8.962;2023-03-05T01:20:56;38.65;;;18.27;;
71104;SDS011;58760;48.716;8.962;2023-03-05T01:23:21;36.55;;;17.98;;
71104;SDS011;58760;48.716;8.962;2023-03-05T01:25:57;34.63;;;17.25;;
71104;SDS011;58760;48.716;8.962;2023-03-05T01:28:23;36.13;;;16.95;;
71104;SDS011;58760;48.716;8.962;2023-03-05T01:30:50;35.38;;;17.38;;
71104;SDS011;58760;48.716;8.962;2023-03-05T01:33:15;31.83;;;15.82;;
71104;SDS011;58760;48.716;8.962;2023-03-05T01:35:41;34.92;;;16.67;;
71104;SDS011;58760;48.716;8.962;2023-03-05T01:38:06;36.60;;;17.98;;
71104;SDS011;58760;48.716;8.962;2023-03-05T01:40:31;36.13;;;17.15;;
71104;SDS011;58760;48.716;8.962;2023-03-05T01:43:05;34.17;;;17.13;;
71104;SDS011;58760;48.716;8.962;2023-03-05T01:45:32;37.17;;;16.67;;
71104;SDS011;58760;48.716;8.962;2023-03-05T01:47:59;38.35;;;16.23;;
71104;SDS011;58760;48.716;8.962;2023-03-05T01:50:25;35.72;;;16.40;;
71104;SDS011;58760;48.716;8.962;2023-03-05T01:52:56;34.03;;;16.27;;
71104;SDS011;58760;48.716;8.962;2023-03-05T01:55:26;36.55;;;17.05;;
71104;SDS011;58760;48.716;8.962;2023-03-05T01:57:56;31.05;;;16.60;;
71104;SDS011;58760;48.716;8.962;2023-03-05T02:00:31;33.38;;;16.58;;
71104;SDS011;58760;48.716;8.962;2023-03-05T02:03:04;34.30;;;15.35;;
71104;SDS011;58760;48.716;8.962;2023-03-05T02:05:33;34.80;;;17.25;;
71104;SDS011;58760;48.716;8.962;2023-03-05T02:08:01;33.97;;;16.23;;
71104;SDS011;58760;48.716;8.962;2023-03-05T02:10:51;42.00;;;17.15;;
71104;SDS011;58760;48.716;8.962;2023-03-05T02:13:17;43.80;;;17.80;;
71104;SDS011;58760;48.716;8.962;2023-03-05T02:15:48;38.53;;;17.42;;
71104;SDS011;58760;48.716;8.962;2023-03-05T02:18:14;37.42;;;17.13;;
71104;SDS011;58760;48.716;8.962;2023-03-05T02:20:42;38.72;;;17.67;;
71104;SDS011;58760;48.716;8.962;2023-03-05T02:23:10;37.80;;;17.10;;
71104;SDS011;58760;48.716;8.962;2023-03-05T02:25:38;37.08;;;16.60;;
71104;SDS011;58760;48.716;8.962;2023-03-05T02:28:22;37.30;;;16.65;;
71104;SDS011;58760;48.716;8.962;2023-03-05T02:30:47;40.42;;;18.73;;
71104;SDS011;58760;48.716;8.962;2023-03-05T02:33:13;41.67;;;20.20;;
71104;SDS011;58760;48.716;8.962;2023-03-05T02:35:39;39.55;;;18.00;;
71104;SDS011;58760;48.716;8.962;2023-03-05T02:38:07;39.03;;;17.92;;
71104;SDS011;58760;48.716;8.962;2023-03-05T02:40:33;35.78;;;18.00;;
71104;SDS011;58760;48.716;8.962;2023-03-05T02:42:58;39.47;;;17.15;;
71104;SDS011;58760;48.716;8.962;2023-03-05T02:45:24;40.33;;;18.10;;
71104;SDS011;58760;48.716;8.962;2023-03-05T02:47:49;38.97;;;17.90;;
71104;SDS011;58760;48.716;8.962;2023-03-05T02:50:14;35.70;;;16.98;;
71104;SDS011;58760;48.716;8.962;2023-03-05T02:52:40;38.15;;;17.92;;
71104;SDS011;58760;48.716;8.962;2023-03-05T02:55:06;39.00;;;19.38;;
71104;SDS011;58760;48.716;8.962;2023-03-05T02:57:31;45.10;;;18.85;;
71104;SDS011;58760;48.716;8.962;2023-03-05T02:59:57;40.85;;;19.35;;
71104;SDS011;58760;48.716;8.962;2023-03-05T03:02:22;36.25;;;17.75;;
71104;SDS011;58760;48.716;8.962;2023-03-05T03:04:47;40.63;;;17.75;;
71104;SDS011;58760;48.716;8.962;2023-03-05T03:07:13;41.45;;;18.92;;
71104;SDS011;58760;48.716;8.962;2023-03-05T03:09:39;44.50;;;19.38;;
71104;SDS011;58760;48.716;8.962;2023-03-05T03:12:07;39.83;;;19.55;;
71104;SDS011;58760;48.716;8.962;2023-03-05T03:14:34;44.25;;;18.98;;
71104;SDS011;58760;48.716;8.962;2023-03-05T03:17:03;43.58;;;18.98;;
71104;SDS011;58760;48.716;8.962;2023-03-05T03:19:30;41.85;;;18.73;;
71104;SDS011;58760;48.716;8.962;2023-03-05T03:21:55;41.05;;;18.65;;
71104;SDS011;58760;48.716;8.962;2023-03-05T03:24:20;40.20;;;17.77;;
71104;SDS011;58760;48.716;8.962;2023-03-05T03:26:46;38.70;;;18.13;;
71104;SDS011;58760;48.716;8.962;2023-03-05T03:29:11;34.53;;;17.27;;
71104;SDS011;58760;48.716;8.962;2023-03-05T03:31:37;36.80;;;18.05;;
71104;SDS011;58760;48.716;8.962;2023-03-05T03:34:05;40.63;;;17.73;;
71104;SDS011;58760;48.716;8.962;2023-03-05T03:36:30;36.30;;;17.33;;
71104;SDS011;58760;48.716;8.962;2023-03-05T03:38:56;36.92;;;17.58;;
71104;SDS011;58760;48.716;8.962;2023-03-05T03:41:21;37.67;;;17.05;;
71104;SDS011;58760;48.716;8.962;2023-03-05T03:43:47;36.05;;;17.15;;
71104;SDS011;58760;48.716;8.962;2023-03-05T03:46:12;38.80;;;16.75;;
71104;SDS011;58760;48.716;8.962;2023-03-05T03:48:37;35.78;;;16.05;;
71104;SDS011;58760;48.716;8.962;2023-03-05T03:51:04;32.00;;;15.85;;
71104;SDS011;58760;48.716;8.962;2023-03-05T03:53:30;32.78;;;16.10;;
71104;SDS011;58760;48.716;8.962;2023-03-05T03:55:59;33.33;;;15.05;;
71104;SDS011;58760;48.716;8.962;2023-03-05T03:58:24;34.58;;;15.55;;
71104;SDS011;58760;48.716;8.962;2023-03-05T04:00:50;33.08;;;15.35;;
71104;SDS011;58760;48.716;8.962;2023-03-05T04:03:15;37.03;;;15.95;;
71104;SDS011;58760;48.716;8.962;2023-03-05T04:05:41;37.60;;;17.50;;
71104;SDS011;58760;48.716;8.962;2023-03-05T04:08:06;38.92;;;16.27;;
71104;SDS011;58760;48.716;8.962;2023-03-05T04:10:39;39.13;;;17.85;;
71104;SDS011;58760;48.716;8.962;2023-03-05T04:13:04;40.67;;;17.65;;
71104;SDS011;58760;48.716;8.962;2023-03-05T04:15:31;39.70;;;17.38;;
71104;SDS011;58760;48.716;8.962;2023-03-05T04:17:57;40.35;;;18.20;;
71104;SDS011;58760;48.716;8.962;2023-03-05T04:20:22;39.15;;;17.15;;
71104;SDS011;58760;48.716;8.962;2023-03-05T04:22:48;39.38;;;16.55;;
71104;SDS011;58760;48.716;8.962;2023-03-05T04:25:13;37.80;;;18.02;;
71104;SDS011;58760;48.716;8.962;2023-03-05T04:27:38;41.33;;;18.40;;
71104;SDS011;58760;48.716;8.962;2023-03-05T04:30:04;41.67;;;18.52;;
71104;SDS011;58760;48.716;8.962;2023-03-05T04:32:30;41.05;;;18.50;;
71104;SDS011;58760;48.716;8.962;2023-03-05T04:34:56;43.20;;;17.55;;
71104;SDS011;58760;48.716;8.962;2023-03-05T04:37:22;35.47;;;17.05;;
71104;SDS011;58760;48.716;8.962;2023-03-05T04:39:48;39.90;;;17.60;;
71104;SDS011;58760;48.716;8.962;2023-03-05T04:42:13;38.25;;;17.95;;
71104;SDS011;58760;48.716;8.962;2023-03-05T04:44:39;38.90;;;17.05;;
71104;SDS011;58760;48.716;8.962;2023-03-05T04:47:04;37.13;;;17.00;;
71104;SDS011;58760;48.716;8.962;2023-03-05T04:49:30;39.05;;;16.60;;
71104;SDS011;58760;48.716;8.962;2023-03-05T04:51:55;32.92;;;14.98;;
71104;SDS011;58760;48.716;8.962;2023-03-05T04:54:21;35.80;;;16.13;;
71104;SDS011;58760;48.716;8.962;2023-03-05T04:56:47;30.17;;;14.10;;
71104;SDS011;58760;48.716;8.962;2023-03-05T04:59:13;32.30;;;14.25;;
71104;SDS011;58760;48.716;8.962;2023-03-05T05:01:38;33.50;;;14.60;;
71104;SDS011;58760;48.716;8.962;2023-03-05T05:04:04;33.55;;;13.43;;
71104;SDS011;58760;48.716;8.962;2023-03-05T05:06:29;32.63;;;13.63;;
71104;SDS011;58760;48.716;8.962;2023-03-05T05:08:54;33.65;;;13.88;;
71104;SDS011;58760;48.716;8.962;2023-03-05T05:11:20;30.30;;;13.73;;
71104;SDS011;58760;48.716;8.962;2023-03-05T05:13:45;31.95;;;13.10;;
71104;SDS011;58760;48.716;8.962;2023-03-05T05:16:11;30.60;;;11.77;;
71104;SDS011;58760;48.716;8.962;2023-03-05T05:18:36;25.08;;;11.30;;
71104;SDS011;58760;48.716;8.962;2023-03-05T05:21:05;23.75;;;10.82;;
71104;SDS011;58760;48.716;8.962;2023-03-05T05:23:35;23.08;;;9.48;;
71104;SDS011;58760;48.716;8.962;2023-03-05T05:26:01;20.13;;;8.93;;
71104;SDS011;58760;48.716;8.962;2023-03-05T05:28:29;20.83;;;9.50;;
71104;SDS011;58760;48.716;8.962;2023-03-05T05:30:55;21.08;;;9.15;;
71104;SDS011;58760;48.716;8.962;2023-03-05T05:33:21;21.23;;;9.10;;
71104;SDS011;58760;48.716;8.962;2023-03-05T05:35:46;23.80;;;9.32;;
71104;SDS011;58760;48.716;8.962;2023-03-05T05:38:12;28.27;;;9.65;;
71104;SDS011;58760;48.716;8.962;2023-03-05T05:40:38;21.13;;;9.57;;
71104;SDS011;58760;48.716;8.962;2023-03-05T05:43:04;23.10;;;8.65;;
71104;SDS011;58760;48.716;8.962;2023-03-05T05:45:30;21.67;;;8.82;;
71104;SDS011;58760;48.716;8.962;2023-03-05T05:47:55;26.85;;;10.48;;
71104;SDS011;58760;48.716;8.962;2023-03-05T05:50:21;22.83;;;9.68;;
71104;SDS011;58760;48.716;8.962;2023-03-05T05:52:46;20.38;;;9.48;;
71104;SDS011;58760;48.716;8.962;2023-03-05T05:55:12;22.50;;;9.73;;
71104;SDS011;58760;48.716;8.962;2023-03-05T05:57:37;24.10;;;9.48;;
71104;SDS011;58760;48.716;8.962;2023-03-05T06:00:04;24.92;;;10.10;;
71104;SDS011;58760;48.716;8.962;2023-03-05T06:02:31;22.35;;;10.13;;
71104;SDS011;58760;48.716;8.962;2023-03-05T06:04:57;21.08;;;9.73;;
71104;SDS011;58760;48.716;8.962;2023-03-05T06:07:22;22.65;;;9.80;;
71104;SDS011;58760;48.716;8.962;2023-03-05T06:09:48;27.83;;;10.05;;
71104;SDS011;58760;48.716;8.962;2023-03-05T06:12:13;25.77;;;10.45;;
71104;SDS011;58760;48.716;8.962;2023-03-05T06:14:38;24.45;;;10.38;;
71104;SDS011;58760;48.716;8.962;2023-03-05T06:17:04;20.10;;;9.95;;
71104;SDS011;58760;48.716;8.962;2023-03-05T06:19:29;25.85;;;10.32;;
71104;SDS011;58760;48.716;8.962;2023-03-05T06:21:54;24.52;;;10.23;;
71104;SDS011;58760;48.716;8.962;2023-03-05T06:24:20;26.63;;;10.35;;
71104;SDS011;58760;48.716;8.962;2023-03-05T06:26:46;22.83;;;10.32;;
71104;SDS011;58760;48.716;8.962;2023-03-05T06:29:13;22.77;;;10.15;;
71104;SDS011;58760;48.716;8.962;2023-03-05T06:31:39;20.98;;;9.32;;
71104;SDS011;58760;48.716;8.962;2023-03-05T06:34:04;22.80;;;10.57;;
71104;SDS011;58760;48.716;8.962;2023-03-05T06:36:29;22.05;;;9.45;;
71104;SDS011;58760;48.716;8.962;2023-03-05T06:38:55;24.20;;;9.52;;
71104;SDS011;58760;48.716;8.962;2023-03-05T06:41:23;23.08;;;9.90;;
71104;SDS011;58760;48.716;8.962;2023-03-05T06:43:53;19.95;;;9.60;;
71104;SDS011;58760;48.716;8.962;2023-03-05T06:46:20;23.48;;;9.32;;
71104;SDS011;58760;48.716;8.962;2023-03-05T06:48:54;32.80;;;13.60;;
71104;SDS011;58760;48.716;8.962;2023-03-05T06:51:22;32.38;;;15.15;;
71104;SDS011;58760;48.716;8.962;2023-03-05T06:53:50;34.47;;;14.55;;
71104;SDS011;58760;48.716;8.962;2023-03-05T06:56:17;34.10;;;14.15;;
71104;SDS011;58760;48.716;8.962;2023-03-05T06:58:43;36.50;;;14.80;;
71104;SDS011;58760;48.716;8.962;2023-03-05T07:01:13;30.75;;;13.75;;
71104;SDS011;58760;48.716;8.962;2023-03-05T07:03:39;29.38;;;13.15;;
71104;SDS011;58760;48.716;8.962;2023-03-05T07:06:05;27.08;;;12.77;;
71104;SDS011;58760;48.716;8.962;2023-03-05T07:08:38;25.15;;;12.40;;
71104;SDS011;58760;48.716;8.962;2023-03-05T07:11:10;26.50;;;12.85;;
71104;SDS011;58760;48.716;8.962;2023-03-05T07:13:40;30.83;;;12.82;;
71104;SDS011;58760;48.716;8.962;2023-03-05T07:16:06;28.42;;;12.38;;
71104;SDS011;58760;48.716;8.962;2023-03-05T07:18:33;30.52;;;12.77;;
71104;SDS011;58760;48.716;8.962;2023-03-05T07:21:05;31.40;;;13.65;;
71104;SDS011;58760;48.716;8.962;2023-03-05T07:23:32;33.45;;;13.45;;
71104;SDS011;58760;48.716;8.962;2023-03-05T07:28:30;29.52;;;14.05;;
71104;SDS011;58760;48.716;8.962;2023-03-05T07:30:56;36.78;;;15.85;;
71104;SDS011;58760;48.716;8.962;2023-03-05T07:33:26;30.95;;;14.82;;
71104;SDS011;58760;48.716;8.962;2023-03-05T07:35:52;34.67;;;14.80;;
71104;SDS011;58760;48.716;8.962;2023-03-05T07:38:18;33.60;;;15.15;;
71104;SDS011;58760;48.716;8.962;2023-03-05T07:40:44;34.10;;;15.57;;
71104;SDS011;58760;48.716;8.962;2023-03-05T07:43:09;37.63;;;15.32;;
71104;SDS011;58760;48.716;8.962;2023-03-05T07:45:38;30.92;;;14.32;;
71104;SDS011;58760;48.716;8.962;2023-03-05T07:48:07;33.15;;;15.43;;
71104;SDS011;58760;48.716;8.962;2023-03-05T07:50:36;39.30;;;15.55;;
71104;SDS011;58760;48.716;8.962;2023-03-05T07:53:01;37.63;;;14.93;;
71104;SDS011;58760;48.716;8.962;2023-03-05T07:55:27;28.67;;;14.07;;
71104;SDS011;58760;48.716;8.962;2023-03-05T07:57:52;33.88;;;15.05;;
71104;SDS011;58760;48.716;8.962;2023-03-05T08:00:17;35.30;;;15.18;;
71104;SDS011;58760;48.716;8.962;2023-03-05T08:02:43;31.00;;;15.35;;
71104;SDS011;58760;48.716;8.962;2023-03-05T08:05:08;29.23;;;13.75;;
71104;SDS011;58760;48.716;8.962;2023-03-05T08:07:34;26.25;;;12.98;;
71104;SDS011;58760;48.716;8.962;2023-03-05T08:09:59;24.70;;;12.00;;
71104;SDS011;58760;48.716;8.962;2023-03-05T08:12:24;26.85;;;13.20;;
71104;SDS011;58760;48.716;8.962;2023-03-05T08:14:50;27.58;;;12.68;;
71104;SDS011;58760;48.716;8.962;2023-03-05T08:17:15;27.58;;;12.65;;
71104;SDS011;58760;48.716;8.962;2023-03-05T08:19:41;27.67;;;12.88;;
71104;SDS011;58760;48.716;8.962;2023-03-05T08:22:06;27.55;;;13.05;;
71104;SDS011;58760;48.716;8.962;2023-03-05T08:24:32;26.95;;;11.95;;
71104;SDS011;58760;48.716;8.962;2023-03-05T08:26:57;29.40;;;10.98;;
71104;SDS011;58760;48.716;8.962;2023-03-05T08:29:23;24.27;;;10.65;;
71104;SDS011;58760;48.716;8.962;2023-03-05T08:31:50;24.50;;;10.98;;
71104;SDS011;58760;48.716;8.962;2023-03-05T08:34:18;22.00;;;10.15;;
71104;SDS011;58760;48.716;8.962;2023-03-05T08:39:10;20.70;;;10.27;;
71104;SDS011;58760;48.716;8.962;2023-03-05T08:41:35;24.20;;;11.38;;
71104;SDS011;58760;48.716;8.962;2023-03-05T08:44:01;26.35;;;10.45;;
71104;SDS011;58760;48.716;8.962;2023-03-05T08:46:26;22.67;;;10.38;;
71104;SDS011;58760;48.716;8.962;2023-03-05T08:48:52;23.05;;;10.27;;
71104;SDS011;58760;48.716;8.962;2023-03-05T08:51:18;23.42;;;9.50;;
71104;SDS011;58760;48.716;8.962;2023-03-05T08:53:46;24.65;;;10.52;;
71104;SDS011;58760;48.716;8.962;2023-03-05T08:56:12;21.45;;;9.45;;
71104;SDS011;58760;48.716;8.962;2023-03-05T08:58:38;18.48;;;9.32;;
71104;SDS011;58760;48.716;8.962;2023-03-05T09:01:03;21.88;;;9.93;;
71104;SDS011;58760;48.716;8.962;2023-03-05T09:03:29;19.88;;;9.45;;
71104;SDS011;58760;48.716;8.962;2023-03-05T09:06:02;18.60;;;8.73;;
71104;SDS011;58760;48.716;8.962;2023-03-05T09:10:54;20.48;;;9.77;;
71104;SDS011;58760;48.716;8.962;2023-03-05T09:13:20;21.63;;;9.18;;
71104;SDS011;58760;48.716;8.962;2023-03-05T09:15:52;20.83;;;9.15;;
71104;SDS011;58760;48.716;8.962;2023-03-05T09:18:18;21.73;;;9.40;;
71104;SDS011;58760;48.716;8.962;2023-03-05T09:20:45;19.55;;;9.35;;
71104;SDS011;58760;48.716;8.962;2023-03-05T09:23:10;22.42;;;9.50;;
71104;SDS011;58760;48.716;8.962;2023-03-05T09:25:38;21.08;;;9.20;;
71104;SDS011;58760;48.716;8.962;2023-03-05T09:28:04;22.23;;;9.63;;
71104;SDS011;58760;48.716;8.962;2023-03-05T09:30:29;21.63;;;9.82;;
71104;SDS011;58760;48.716;8.962;2023-03-05T09:32:55;22.75;;;9.30;;
71104;SDS011;58760;48.716;8.962;2023-03-05T09:35:20;22.20;;;9.88;;
71104;SDS011;58760;48.716;8.962;2023-03-05T09:37:46;19.55;;;10.10;;
71104;SDS011;58760;48.716;8.962;2023-03-05T09:40:13;18.02;;;8.75;;
71104;SDS011;58760;48.716;8.962;2023-03-05T09:52:57;26.73;;;10.30;;
71104;SDS011;58760;48.716;8.962;2023-03-05T09:55:34;22.80;;;9.77;;
71104;SDS011;58760;48.716;8.962;2023-03-05T10:03:21;28.60;;;10.00;;
71104;SDS011;58760;48.716;8.962;2023-03-05T10:14:29;18.77;;;9.00;;
71104;SDS011;58760;48.716;8.962;2023-03-05T10:22:41;22.13;;;9.60;;
71104;SDS011;58760;48.716;8.962;2023-03-05T10:28:14;21.58;;;9.13;;
71104;SDS011;58760;48.716;8.962;2023-03-05T10:47:51;20.35;;;10.05;;
71104;SDS011;58760;48.716;8.962;2023-03-05T10:50:14;23.80;;;10.38;;
71104;SDS011;58760;48.716;8.962;2023-03-05T10:52:44;19.77;;;10.35;;
71104;SDS011;58760;48.716;8.962;2023-03-05T10:55:17;21.40;;;10.52;;
71104;SDS011;58760;48.716;8.962;2023-03-05T10:57:44;25.88;;;11.30;;
71104;SDS011;58760;48.716;8.962;2023-03-05T11:05:33;24.85;;;10.30;;
71104;SDS011;58760;48.716;8.962;2023-03-05T11:10:43;19.58;;;9.30;;
71104;SDS011;58760;48.716;8.962;2023-03-05T11:13:25;22.30;;;10.38;;
71104;SDS011;58760;48.716;8.962;2023-03-05T11:16:02;21.60;;;9.63;;
71104;SDS011;58760;48.716;8.962;2023-03-05T11:18:29;22.42;;;9.75;;
71104;SDS011;58760;48.716;8.962;2023-03-05T11:23:36;25.40;;;11.63;;
71104;SDS011;58760;48.716;8.962;2023-03-05T11:28:38;25.52;;;10.57;;
71104;SDS011;58760;48.716;8.962;2023-03-05T11:31:06;23.27;;;11.57;;
71104;SDS011;58760;48.716;8.962;2023-03-05T11:33:58;27.33;;;10.52;;
71104;SDS011;58760;48.716;8.962;2023-03-05T11:41:41;23.92;;;10.48;;
71104;SDS011;58760;48.716;8.962;2023-03-05T11:44:10;24.50;;;10.18;;
71104;SDS011;58760;48.716;8.962;2023-03-05T11:46:45;32.05;;;11.48;;
71104;SDS011;58760;48.716;8.962;2023-03-05T11:49:16;26.45;;;10.35;;
71104;SDS011;58760;48.716;8.962;2023-03-05T11:51:47;25.88;;;10.77;;
71104;SDS011;58760;48.716;8.962;2023-03-05T11:54:15;26.67;;;11.07;;
71104;SDS011;58760;48.716;8.962;2023-03-05T11:56:46;26.38;;;11.43;;
71104;SDS011;58760;48.716;8.962;2023-03-05T11:59:15;30.17;;;12.20;;
71104;SDS011;58760;48.716;8.962;2023-03-05T12:01:50;28.95;;;13.02;;
71104;SDS011;58760;48.716;8.962;2023-03-05T12:04:17;28.27;;;12.38;;
71104;SDS011;58760;48.716;8.962;2023-03-05T12:06:51;30.20;;;14.05;;
71104;SDS011;58760;48.716;8.962;2023-03-05T12:09:25;30.55;;;12.80;;
71104;SDS011;58760;48.716;8.962;2023-03-05T12:12:06;26.85;;;12.27;;
71104;SDS011;58760;48.716;8.962;2023-03-05T12:14:45;31.17;;;12.52;;
71104;SDS011;58760;48.716;8.962;2023-03-05T12:17:14;28.77;;;12.45;;
71104;SDS011;58760;48.716;8.962;2023-03-05T12:22:15;28.70;;;13.82;;
71104;SDS011;58760;48.716;8.962;2023-03-05T12:25:15;30.02;;;14.35;;
71104;SDS011;58760;48.716;8.962;2023-03-05T12:27:50;32.60;;;13.20;;
71104;SDS011;58760;48.716;8.962;2023-03-05T12:33:02;29.88;;;12.85;;
71104;SDS011;58760;48.716;8.962;2023-03-05T12:35:48;30.88;;;14.68;;
71104;SDS011;58760;48.716;8.962;2023-03-05T12:38:17;31.67;;;13.75;;
71104;SDS011;58760;48.716;8.962;2023-03-05T12:41:09;27.63;;;12.57;;
71104;SDS011;58760;48.716;8.962;2023-03-05T12:46:34;28.65;;;12.27;;
71104;SDS011;58760;48.716;8.962;2023-03-05T12:51:51;25.35;;;12.23;;
71104;SDS011;58760;48.716;8.962;2023-03-05T12:56:49;31.70;;;12.00;;
71104;SDS011;58760;48.716;8.962;2023-03-05T13:01:44;25.83;;;11.68;;
71104;SDS011;58760;48.716;8.962;2023-03-05T13:04:15;26.23;;;11.80;;
71104;SDS011;58760;48.716;8.962;2023-03-05T13:06:45;24.88;;;11.60;;
71104;SDS011;58760;48.716;8.962;2023-03-05T13:09:18;25.65;;;11.02;;
71104;SDS011;58760;48.716;8.962;2023-03-05T13:11:49;22.55;;;9.52;;
71104;SDS011;58760;48.716;8.962;2023-03-05T13:14:27;25.73;;;10.60;;
71104;SDS011;58760;48.716;8.962;2023-03-05T13:16:56;24.58;;;10.25;;
71104;SDS011;58760;48.716;8.962;2023-03-05T13:19:22;23.65;;;10.88;;
71104;SDS011;58760;48.716;8.962;2023-03-05T13:22:01;23.23;;;10.23;;
71104;SDS011;58760;48.716;8.962;2023-03-05T13:24:28;28.77;;;11.55;;
71104;SDS011;58760;48.716;8.962;2023-03-05T13:26:55;25.90;;;11.27;;
71104;SDS011;58760;48.716;8.962;2023-03-05T13:29:21;22.55;;;10.52;;
71104;SDS011;58760;48.716;8.962;2023-03-05T13:31:59;23.83;;;10.75;;
71104;SDS011;58760;48.716;8.962;2023-03-05T13:34:36;23.55;;;9.55;;
71104;SDS011;58760;48.716;8.962;2023-03-05T13:39:36;22.45;;;9.90;;
71104;SDS011;58760;48.716;8.962;2023-03-05T13:44:41;27.75;;;11.15;;
71104;SDS011;58760;48.716;8.962;2023-03-05T13:47:18;22.27;;;10.35;;
71104;SDS011;58760;48.716;8.962;2023-03-05T13:49:45;23.65;;;11.05;;
71104;SDS011;58760;48.716;8.962;2023-03-05T13:52:11;22.45;;;10.43;;
71104;SDS011;58760;48.716;8.962;2023-03-05T13:54:47;22.40;;;9.75;;
71104;SDS011;58760;48.716;8.962;2023-03-05T13:57:30;23.13;;;10.45;;
71104;SDS011;58760;48.716;8.962;2023-03-05T13:59:57;23.27;;;10.65;;
71104;SDS011;58760;48.716;8.962;2023-03-05T14:02:24;29.95;;;13.77;;
71104;SDS011;58760;48.716;8.962;2023-03-05T14:04:52;25.38;;;10.48;;
71104;SDS011;58760;48.716;8.962;2023-03-05T14:09:45;20.70;;;10.02;;
71104;SDS011;58760;48.716;8.962;2023-03-05T14:15:00;24.95;;;10.65;;
71104;SDS011;58760;48.716;8.962;2023-03-05T14:17:38;22.75;;;10.90;;
71104;SDS011;58760;48.716;8.962;2023-03-05T14:22:32;24.67;;;11.90;;
71104;SDS011;58760;48.716;8.962;2023-03-05T14:25:00;27.05;;;10.82;;
71104;SDS011;58760;48.716;8.962;2023-03-05T14:27:27;24.42;;;11.07;;
71104;SDS011;58760;48.716;8.962;2023-03-05T14:29:57;23.17;;;10.43;;
71104;SDS011;58760;48.716;8.962;2023-03-05T14:32:30;25.35;;;11.30;;
71104;SDS011;58760;48.716;8.962;2023-03-05T14:35:00;21.23;;;10.30;;
71104;SDS011;58760;48.716;8.962;2023-03-05T14:37:30;23.23;;;10.45;;
71104;SDS011;58760;48.716;8.962;2023-03-05T14:40:14;23.42;;;10.27;;
71104;SDS011;58760;48.716;8.962;2023-03-05T14:45:31;21.92;;;10.27;;
71104;SDS011;58760;48.716;8.962;2023-03-05T14:48:01;25.35;;;10.70;;
71104;SDS011;58760;48.716;8.962;2023-03-05T14:50:32;22.48;;;11.13;;
71104;SDS011;58760;48.716;8.962;2023-03-05T14:53:36;27.75;;;11.15;;
71104;SDS011;58760;48.716;8.962;2023-03-05T14:55:55;26.00;;;11.18;;
71104;SDS011;58760;48.716;8.962;2023-03-05T14:58:22;25.00;;;10.93;;
71104;SDS011;58760;48.716;8.962;2023-03-05T15:00:50;27.52;;;11.23;;
71104;SDS011;58760;48.716;8.962;2023-03-05T15:03:17;24.50;;;11.13;;
71104;SDS011;58760;48.716;8.962;2023-03-05T15:05:43;26.00;;;11.30;;
71104;SDS011;58760;48.716;8.962;2023-03-05T15:08:17;24.17;;;10.75;;
71104;SDS011;58760;48.716;8.962;2023-03-05T15:10:46;27.08;;;12.00;;
71104;SDS011;58760;48.716;8.962;2023-03-05T15:13:12;26.90;;;11.35;;
71104;SDS011;58760;48.716;8.962;2023-03-05T15:15:39;26.42;;;11.48;;
71104;SDS011;58760;48.716;8.962;2023-03-05T15:18:06;24.20;;;11.13;;
71104;SDS011;58760;48.716;8.962;2023-03-05T15:20:34;24.33;;;11.70;;
71104;SDS011;58760;48.716;8.962;2023-03-05T15:22:59;30.25;;;11.90;;
71104;SDS011;58760;48.716;8.962;2023-03-05T15:25:24;28.25;;;11.52;;
71104;SDS011;58760;48.716;8.962;2023-03-05T15:27:53;25.38;;;11.25;;
71104;SDS011;58760;48.716;8.962;2023-03-05T15:32:49;29.05;;;12.68;;
71104;SDS011;58760;48.716;8.962;2023-03-05T15:35:15;24.92;;;11.95;;
71104;SDS011;58760;48.716;8.962;2023-03-05T15:37:41;26.58;;;11.65;;
71104;SDS011;58760;48.716;8.962;2023-03-05T15:40:06;24.33;;;11.38;;
71104;SDS011;58760;48.716;8.962;2023-03-05T15:42:32;27.30;;;12.25;;
71104;SDS011;58760;48.716;8.962;2023-03-05T15:44:58;29.88;;;11.93;;
71104;SDS011;58760;48.716;8.962;2023-03-05T15:47:23;26.63;;;12.25;;
71104;SDS011;58760;48.716;8.962;2023-03-05T15:49:48;30.05;;;11.43;;
71104;SDS011;58760;48.716;8.962;2023-03-05T15:52:14;25.67;;;11.23;;
71104;SDS011;58760;48.716;8.962;2023-03-05T15:54:39;28.98;;;11.60;;
71104;SDS011;58760;48.716;8.962;2023-03-05T15:57:07;26.95;;;11.63;;
71104;SDS011;58760;48.716;8.962;2023-03-05T15:59:33;27.95;;;12.07;;
71104;SDS011;58760;48.716;8.962;2023-03-05T16:01:59;28.13;;;12.07;;
71104;SDS011;58760;48.716;8.962;2023-03-05T16:04:25;30.00;;;11.95;;
71104;SDS011;58760;48.716;8.962;2023-03-05T16:06:52;28.17;;;11.95;;
71104;SDS011;58760;48.716;8.962;2023-03-05T16:09:17;25.92;;;11.32;;
71104;SDS011;58760;48.716;8.962;2023-03-05T16:11:44;28.45;;;12.50;;
71104;SDS011;58760;48.716;8.962;2023-03-05T16:14:12;29.17;;;11.60;;
71104;SDS011;58760;48.716;8.962;2023-03-05T16:16:41;30.45;;;13.00;;